Time;durP1;ratioP1;P1;durP2;ratioP2;P2;SDS_P1;SDS_P2;PMS_P1;PMS_P2;Temp;Humidity;BMP_temperature;BMP_pressure;BME280_temperature;BME280_humidity;BME280_pressure;Samples;Min_cycle;Max_cycle;Signal;HPM_P1;HPM_P2
2022/01/07 00:00:51;;;;;;;9.23;7.68;;;6.60;72.20;;;;;;5048044;28;20021;-57
2022/01/07 00:03:18;;;;;;;9.60;7.35;;;6.60;72.20;;;;;;5052214;28;20112;-57
2022/01/07 00:05:44;;;;;;;10.13;7.13;;;6.60;72.20;;;;;;5056463;28;20047;-57
2022/01/07 00:08:10;;;;;;;9.55;7.38;;;6.60;72.20;;;;;;5048380;28;20029;-56
2022/01/07 00:10:36;;;;;;;12.93;8.48;;;6.60;72.20;;;;;;5053018;28;20372;-55
2022/01/07 00:13:02;;;;;;;11.13;8.52;;;6.50;72.20;;;;;;5053306;28;20358;-57
2022/01/07 00:15:28;;;;;;;11.05;7.95;;;6.60;72.30;;;;;;5043773;28;20039;-57
2022/01/07 00:17:54;;;;;;;11.68;8.23;;;6.50;72.20;;;;;;5048614;28;20036;-57
2022/01/07 00:20:19;;;;;;;10.30;8.30;;;6.50;72.20;;;;;;5049930;28;20032;-56
2022/01/07 00:22:47;;;;;;;11.02;8.13;;;6.50;72.20;;;;;;5050203;28;20061;-57
2022/01/07 00:25:14;;;;;;;9.65;7.75;;;6.50;72.30;;;;;;5046910;28;20029;-57
2022/01/07 00:27:40;;;;;;;11.60;8.38;;;6.40;72.20;;;;;;5042805;28;20021;-56
2022/01/07 00:30:08;;;;;;;12.55;8.52;;;6.40;72.50;;;;;;5051938;28;20465;-55
2022/01/07 00:32:35;;;;;;;10.80;8.27;;;6.40;72.40;;;;;;5054596;28;20024;-57
2022/01/07 00:35:01;;;;;;;11.18;7.72;;;6.40;72.50;;;;;;5055511;28;20079;-55
2022/01/07 00:37:26;;;;;;;8.43;7.20;;;6.40;72.50;;;;;;5055230;28;20048;-56
2022/01/07 00:39:52;;;;;;;10.75;7.90;;;6.30;72.70;;;;;;5046065;28;20028;-55
2022/01/07 00:42:18;;;;;;;9.77;8.27;;;6.30;72.50;;;;;;5049819;28;20124;-55
2022/01/07 00:44:44;;;;;;;10.48;8.40;;;6.30;72.80;;;;;;5040082;28;20060;-56
2022/01/07 00:47:09;;;;;;;10.40;8.00;;;6.20;72.80;;;;;;5051244;28;20040;-53
2022/01/07 00:49:35;;;;;;;9.70;7.78;;;6.20;73.00;;;;;;5052765;28;20473;-57
2022/01/07 00:52:01;;;;;;;12.75;8.40;;;6.20;72.90;;;;;;5069139;28;20091;-56
2022/01/07 00:54:28;;;;;;;9.73;7.82;;;6.10;73.10;;;;;;5052737;28;20025;-56
2022/01/07 00:56:54;;;;;;;11.13;7.82;;;6.10;73.10;;;;;;5055667;28;20104;-56
2022/01/07 00:59:19;;;;;;;7.50;6.70;;;6.10;73.20;;;;;;5054300;28;20117;-57
2022/01/07 01:01:46;;;;;;;9.35;6.70;;;6.10;72.90;;;;;;5056752;28;20538;-56
2022/01/07 01:04:12;;;;;;;8.70;6.53;;;6.00;72.70;;;;;;5045939;28;20057;-57
2022/01/07 01:06:40;;;;;;;8.25;6.25;;;6.00;72.70;;;;;;5054309;28;20446;-53
2022/01/07 01:09:07;;;;;;;7.97;6.68;;;5.80;72.50;;;;;;5042657;28;20068;-53
2022/01/07 01:11:34;;;;;;;7.15;6.45;;;5.80;72.70;;;;;;5055199;28;20048;-55
2022/01/07 01:14:00;;;;;;;8.40;6.32;;;5.70;72.60;;;;;;5055268;28;20025;-57
2022/01/07 01:16:26;;;;;;;7.07;5.70;;;5.60;72.70;;;;;;5055397;28;20055;-57
2022/01/07 01:18:51;;;;;;;7.80;6.03;;;5.60;72.90;;;;;;5053947;28;20103;-56
2022/01/07 01:21:17;;;;;;;9.85;6.25;;;5.60;73.10;;;;;;5035550;28;20051;-55
2022/01/07 01:23:45;;;;;;;9.73;6.78;;;5.50;73.00;;;;;;5067704;28;20481;-56
2022/01/07 01:26:12;;;;;;;8.07;6.13;;;5.50;73.10;;;;;;5055038;28;20035;-57
2022/01/07 01:28:38;;;;;;;7.55;6.53;;;5.50;73.00;;;;;;5053707;28;20024;-57
2022/01/07 01:31:04;;;;;;;9.55;6.35;;;5.40;73.10;;;;;;5060708;28;20042;-56
2022/01/07 01:33:29;;;;;;;8.50;6.43;;;5.40;73.30;;;;;;5049632;28;20061;-56
2022/01/07 01:35:55;;;;;;;8.65;6.50;;;5.30;73.20;;;;;;5052043;28;20036;-53
2022/01/07 01:38:21;;;;;;;10.02;6.85;;;5.30;73.20;;;;;;5050296;28;20096;-55
2022/01/07 01:40:47;;;;;;;8.52;5.85;;;5.30;73.10;;;;;;5054698;28;20028;-52
2022/01/07 01:43:13;;;;;;;9.38;7.20;;;5.30;73.10;;;;;;5051533;28;20054;-56
2022/01/07 01:45:39;;;;;;;7.30;6.20;;;5.30;73.20;;;;;;5046661;28;20045;-57
2022/01/07 01:48:04;;;;;;;8.02;5.65;;;5.20;73.10;;;;;;5051996;28;20426;-57
2022/01/07 01:50:30;;;;;;;7.35;6.25;;;5.20;73.30;;;;;;5053848;28;20047;-55
2022/01/07 01:52:57;;;;;;;8.20;6.78;;;5.20;73.30;;;;;;5054202;28;20062;-57
2022/01/07 01:55:26;;;;;;;7.63;6.60;;;5.20;73.30;;;;;;5046651;28;20028;-54
2022/01/07 01:57:53;;;;;;;9.10;6.75;;;5.10;73.30;;;;;;5050404;28;20021;-57
2022/01/07 02:00:21;;;;;;;9.02;7.38;;;5.20;73.40;;;;;;5042586;28;20416;-56
2022/01/07 02:02:47;;;;;;;8.82;6.70;;;5.20;73.40;;;;;;5054457;28;20032;-57
2022/01/07 02:05:13;;;;;;;8.18;6.75;;;5.20;73.20;;;;;;5056367;28;20078;-56
2022/01/07 02:07:40;;;;;;;9.60;6.72;;;5.20;73.00;;;;;;5041719;28;20469;-57
2022/01/07 02:10:09;;;;;;;9.32;6.30;;;5.30;73.00;;;;;;5053420;28;20021;-54
2022/01/07 02:12:35;;;;;;;8.40;6.53;;;5.30;72.80;;;;;;5040887;28;20028;-54
2022/01/07 02:15:00;;;;;;;7.53;5.85;;;5.30;72.40;;;;;;5053544;28;20439;-56
2022/01/07 02:17:27;;;;;;;6.70;5.45;;;5.20;72.40;;;;;;5054683;28;20025;-56
2022/01/07 02:19:56;;;;;;;7.20;6.15;;;5.20;72.50;;;;;;5045147;28;20084;-56
2022/01/07 02:22:23;;;;;;;6.72;6.03;;;5.20;72.50;;;;;;5054225;28;20116;-57
2022/01/07 02:24:50;;;;;;;8.13;5.85;;;5.20;72.50;;;;;;5046238;28;20086;-56
2022/01/07 02:27:16;;;;;;;8.07;5.72;;;5.20;72.30;;;;;;5042409;28;20029;-53
2022/01/07 02:29:47;;;;;;;9.00;6.38;;;5.30;72.20;;;;;;5051873;28;20029;-54
2022/01/07 02:32:12;;;;;;;6.90;6.03;;;5.30;72.00;;;;;;5049633;28;20033;-57
2022/01/07 02:34:38;;;;;;;7.28;5.65;;;5.30;72.00;;;;;;5045953;28;20473;-56
2022/01/07 02:37:04;;;;;;;7.72;5.88;;;5.30;71.70;;;;;;5054841;28;20465;-57
2022/01/07 02:39:30;;;;;;;9.27;6.80;;;5.30;71.60;;;;;;5054209;28;20021;-56
2022/01/07 02:41:56;;;;;;;8.60;6.20;;;5.30;71.60;;;;;;5053797;28;20055;-56
2022/01/07 02:44:22;;;;;;;7.53;5.70;;;5.30;71.60;;;;;;5048127;28;20040;-57
2022/01/07 02:46:47;;;;;;;6.50;5.38;;;5.30;71.50;;;;;;5060125;28;20024;-56
2022/01/07 02:49:16;;;;;;;6.07;5.47;;;5.30;71.60;;;;;;5060092;28;20029;-56
2022/01/07 02:51:42;;;;;;;8.95;6.65;;;5.30;71.50;;;;;;5046875;28;20024;-57
2022/01/07 02:54:08;;;;;;;7.38;5.88;;;5.30;71.50;;;;;;5050642;28;20519;-57
2022/01/07 02:56:35;;;;;;;8.60;5.97;;;5.30;71.50;;;;;;5041264;28;20032;-56
2022/01/07 02:59:02;;;;;;;7.65;6.22;;;5.30;71.70;;;;;;5043941;28;20061;-56
2022/01/07 03:01:28;;;;;;;8.15;6.18;;;5.30;71.60;;;;;;5047100;28;20067;-54
2022/01/07 03:03:54;;;;;;;6.97;6.07;;;5.20;71.60;;;;;;5051999;28;20075;-56
2022/01/07 03:06:21;;;;;;;8.20;5.97;;;5.20;71.70;;;;;;5054214;28;20025;-52
2022/01/07 03:08:48;;;;;;;8.68;6.03;;;5.20;71.80;;;;;;5041003;28;20033;-55
2022/01/07 03:11:14;;;;;;;8.93;6.47;;;5.20;71.80;;;;;;5054147;28;20052;-57
2022/01/07 03:13:40;;;;;;;6.95;6.20;;;5.20;71.70;;;;;;5044196;28;20032;-56
2022/01/07 03:16:05;;;;;;;7.45;5.95;;;5.20;71.70;;;;;;5037454;28;20033;-56
2022/01/07 03:18:31;;;;;;;7.38;5.70;;;5.20;71.70;;;;;;5051671;28;20130;-55
2022/01/07 03:20:58;;;;;;;6.82;5.82;;;5.20;71.70;;;;;;5049218;28;20080;-57
2022/01/07 03:23:24;;;;;;;7.32;6.10;;;5.20;71.70;;;;;;5055289;28;20543;-57
2022/01/07 03:25:50;;;;;;;7.88;6.20;;;5.20;71.80;;;;;;5057512;28;20025;-56
2022/01/07 03:28:16;;;;;;;7.63;6.32;;;5.20;71.90;;;;;;5057554;28;20536;-54
2022/01/07 03:30:42;;;;;;;7.55;6.07;;;5.20;72.00;;;;;;5051101;28;20783;-54
2022/01/07 03:33:08;;;;;;;7.47;6.10;;;5.20;72.00;;;;;;5049472;28;20033;-54
2022/01/07 03:35:34;;;;;;;7.10;5.85;;;5.20;72.10;;;;;;5065697;28;20105;-55
2022/01/07 03:38:00;;;;;;;7.80;6.28;;;5.20;72.00;;;;;;5057012;28;20051;-55
2022/01/07 03:40:26;;;;;;;6.93;5.85;;;5.20;71.90;;;;;;5069394;28;20028;-55
2022/01/07 03:42:52;;;;;;;7.88;5.85;;;5.20;71.90;;;;;;5054900;28;20389;-55
2022/01/07 03:45:19;;;;;;;7.63;6.13;;;5.20;71.90;;;;;;5046081;28;20029;-56
2022/01/07 03:47:45;;;;;;;7.03;5.53;;;5.20;71.90;;;;;;5053571;28;20064;-56
2022/01/07 03:50:14;;;;;;;7.25;5.47;;;5.20;72.00;;;;;;5055984;28;20493;-55
2022/01/07 03:52:40;;;;;;;7.30;5.90;;;5.20;72.00;;;;;;5056411;28;20029;-56
2022/01/07 03:55:11;;;;;;;6.75;5.97;;;5.20;71.90;;;;;;5056871;28;20025;-57
2022/01/07 03:57:37;;;;;;;5.55;4.95;;;5.20;71.90;;;;;;5040868;28;20029;-56
2022/01/07 04:00:09;;;;;;;6.70;5.55;;;5.20;71.80;;;;;;5061448;28;20021;-56
2022/01/07 04:02:35;;;;;;;7.43;5.72;;;5.10;71.60;;;;;;5059620;28;20017;-54
2022/01/07 04:05:00;;;;;;;6.63;5.30;;;5.20;71.70;;;;;;5067927;28;20025;-53
2022/01/07 04:07:26;;;;;;;8.50;5.60;;;5.20;71.70;;;;;;5054188;28;20122;-57
2022/01/07 04:09:52;;;;;;;6.97;5.78;;;5.20;71.70;;;;;;5051075;28;20434;-55
2022/01/07 04:12:17;;;;;;;7.03;5.80;;;5.20;71.60;;;;;;5049347;28;20056;-56
2022/01/07 04:14:43;;;;;;;6.88;5.40;;;5.20;71.60;;;;;;5055698;28;20120;-57
2022/01/07 04:17:09;;;;;;;6.97;5.80;;;5.20;71.40;;;;;;5056795;28;20556;-56
2022/01/07 04:19:34;;;;;;;7.70;5.57;;;5.20;71.40;;;;;;5056552;28;20086;-53
2022/01/07 04:22:00;;;;;;;6.18;5.28;;;5.30;71.50;;;;;;5045999;28;20045;-57
2022/01/07 04:24:26;;;;;;;6.28;5.10;;;5.30;71.40;;;;;;5056295;28;20029;-56
2022/01/07 04:26:52;;;;;;;6.53;5.22;;;5.30;71.20;;;;;;5050209;28;20520;-57
2022/01/07 04:29:17;;;;;;;6.05;4.47;;;5.30;70.80;;;;;;5056141;28;20021;-56
2022/01/07 04:31:43;;;;;;;5.63;4.70;;;5.20;70.70;;;;;;5055714;28;20025;-57
2022/01/07 04:34:09;;;;;;;6.57;4.57;;;5.20;70.70;;;;;;5056359;28;20052;-56
2022/01/07 04:36:36;;;;;;;6.22;4.88;;;5.20;70.90;;;;;;5054187;28;20037;-56
2022/01/07 04:39:02;;;;;;;6.28;4.40;;;5.20;70.80;;;;;;5051013;28;20476;-55
2022/01/07 04:41:28;;;;;;;6.05;4.75;;;5.20;70.70;;;;;;5061417;28;20025;-56
2022/01/07 04:43:54;;;;;;;6.53;5.00;;;5.20;70.50;;;;;;5040560;28;20049;-56
2022/01/07 04:46:19;;;;;;;6.30;4.40;;;5.10;70.40;;;;;;5060956;28;20049;-56
2022/01/07 04:48:45;;;;;;;5.40;4.43;;;5.10;70.50;;;;;;5042500;28;20044;-54
2022/01/07 04:51:10;;;;;;;5.72;4.50;;;5.00;70.40;;;;;;5043371;28;20022;-57
2022/01/07 04:53:36;;;;;;;5.15;4.38;;;5.10;70.60;;;;;;5061328;28;20028;-55
2022/01/07 04:56:02;;;;;;;5.53;4.53;;;5.00;70.40;;;;;;5049641;28;20469;-54
2022/01/07 04:58:28;;;;;;;5.45;4.38;;;5.00;70.20;;;;;;5055543;28;20504;-56
2022/01/07 05:00:53;;;;;;;4.80;4.22;;;5.00;70.30;;;;;;5052674;28;20025;-56
2022/01/07 05:03:19;;;;;;;4.65;4.20;;;4.90;70.20;;;;;;5043644;28;20037;-57
2022/01/07 05:05:49;;;;;;;5.43;4.38;;;4.90;70.30;;;;;;5049154;28;20025;-56
2022/01/07 05:08:19;;;;;;;4.90;4.18;;;4.90;70.40;;;;;;5055959;28;20029;-55
2022/01/07 05:10:44;;;;;;;6.18;4.40;;;4.80;70.40;;;;;;5054697;28;20108;-56
2022/01/07 05:13:10;;;;;;;6.72;4.55;;;4.80;70.40;;;;;;5054495;28;20575;-55
2022/01/07 05:15:36;;;;;;;5.72;4.55;;;4.80;70.50;;;;;;5044189;28;20241;-57
2022/01/07 05:18:02;;;;;;;3.95;3.53;;;4.80;70.50;;;;;;5049994;28;20029;-57
2022/01/07 05:20:27;;;;;;;4.82;4.32;;;4.80;70.40;;;;;;5055021;28;20040;-56
2022/01/07 05:22:53;;;;;;;5.53;4.05;;;4.80;70.20;;;;;;5054967;28;20033;-56
2022/01/07 05:25:21;;;;;;;5.38;4.22;;;4.80;70.30;;;;;;5047661;28;20503;-56
2022/01/07 05:27:46;;;;;;;4.97;3.75;;;4.80;70.40;;;;;;5054039;28;20384;-55
2022/01/07 05:30:13;;;;;;;4.78;4.28;;;4.70;70.30;;;;;;5063581;28;20029;-56
2022/01/07 05:32:39;;;;;;;4.85;3.85;;;4.70;70.10;;;;;;5068808;28;20023;-55
2022/01/07 05:35:06;;;;;;;4.85;3.75;;;4.70;70.00;;;;;;5048104;28;20100;-55
2022/01/07 05:37:32;;;;;;;4.43;3.45;;;4.60;69.80;;;;;;5051755;28;20040;-55
2022/01/07 05:39:58;;;;;;;4.78;3.80;;;4.50;69.80;;;;;;5053841;28;20029;-56
2022/01/07 05:42:25;;;;;;;3.50;3.17;;;4.50;69.80;;;;;;5041435;28;20029;-57
2022/01/07 05:44:50;;;;;;;3.58;3.28;;;4.40;69.90;;;;;;5042096;28;20436;-54
2022/01/07 05:47:17;;;;;;;3.72;3.38;;;4.30;70.60;;;;;;5067661;28;20029;-57
2022/01/07 05:49:42;;;;;;;3.80;3.35;;;4.30;70.20;;;;;;5041857;28;20033;-56
2022/01/07 05:52:08;;;;;;;4.50;3.42;;;4.20;70.30;;;;;;5053590;28;20024;-57
2022/01/07 05:54:33;;;;;;;4.30;3.58;;;4.20;70.50;;;;;;5054985;28;20025;-56
2022/01/07 05:57:00;;;;;;;3.88;3.47;;;4.10;70.60;;;;;;5054266;28;20384;-55
2022/01/07 05:59:25;;;;;;;3.50;3.20;;;4.10;70.70;;;;;;5052857;28;20508;-56
2022/01/07 06:01:51;;;;;;;6.00;3.83;;;4.10;70.70;;;;;;5067931;28;20086;-56
2022/01/07 06:04:17;;;;;;;4.03;3.63;;;4.10;70.80;;;;;;5054841;28;20075;-55
2022/01/07 06:06:42;;;;;;;4.50;3.58;;;4.20;70.80;;;;;;5068423;28;20025;-55
2022/01/07 06:09:08;;;;;;;4.78;3.60;;;4.20;70.70;;;;;;5042151;28;20029;-56
2022/01/07 06:11:34;;;;;;;4.15;3.30;;;4.20;70.80;;;;;;5050344;28;20028;-55
2022/01/07 06:14:00;;;;;;;4.25;3.30;;;4.20;70.80;;;;;;5057932;28;20057;-56
2022/01/07 06:16:25;;;;;;;3.70;3.03;;;4.20;70.70;;;;;;5054751;28;20554;-56
2022/01/07 06:18:57;;;;;;;4.05;3.05;;;4.20;70.90;;;;;;5054513;28;20511;-56
2022/01/07 06:21:23;;;;;;;4.10;3.20;;;4.20;70.80;;;;;;5054448;28;20480;-57
2022/01/07 06:23:49;;;;;;;4.00;3.25;;;4.10;70.60;;;;;;5054135;28;20056;-55
2022/01/07 06:26:15;;;;;;;3.45;3.15;;;4.20;70.60;;;;;;5046882;28;20463;-57
2022/01/07 06:28:41;;;;;;;3.95;3.17;;;4.10;70.60;;;;;;5054927;28;20017;-57
2022/01/07 06:31:07;;;;;;;3.60;3.30;;;4.10;70.70;;;;;;5053703;28;20032;-53
2022/01/07 06:33:33;;;;;;;4.05;2.80;;;4.10;70.70;;;;;;5067688;28;20085;-55
2022/01/07 06:35:58;;;;;;;3.58;3.28;;;4.00;70.80;;;;;;5054141;28;20025;-56
2022/01/07 06:38:24;;;;;;;3.55;2.97;;;4.00;70.90;;;;;;5054243;28;20411;-56
2022/01/07 06:40:49;;;;;;;2.65;2.42;;;4.10;71.00;;;;;;5053284;28;20489;-56
2022/01/07 06:43:15;;;;;;;2.80;2.60;;;4.20;71.10;;;;;;5040625;28;20064;-57
2022/01/07 06:45:41;;;;;;;3.58;2.83;;;4.20;70.90;;;;;;5045575;28;20029;-54
2022/01/07 06:48:06;;;;;;;3.13;2.80;;;4.20;70.80;;;;;;5046938;28;20030;-57
2022/01/07 06:50:32;;;;;;;3.33;2.60;;;4.20;70.70;;;;;;5050114;28;20106;-56
2022/01/07 06:52:58;;;;;;;4.15;3.17;;;4.30;70.50;;;;;;5056908;28;20032;-56
2022/01/07 06:55:23;;;;;;;3.15;2.78;;;4.30;70.30;;;;;;5049080;28;20472;-57
2022/01/07 06:57:49;;;;;;;2.83;2.63;;;4.30;70.20;;;;;;5054415;28;20017;-57
2022/01/07 07:00:15;;;;;;;3.28;2.97;;;4.20;70.10;;;;;;5050613;28;20492;-57
2022/01/07 07:02:41;;;;;;;3.53;3.03;;;4.20;70.50;;;;;;5056896;28;20017;-56
2022/01/07 07:05:07;;;;;;;3.30;2.88;;;4.20;70.50;;;;;;5052102;28;20120;-56
2022/01/07 07:07:32;;;;;;;4.40;2.90;;;4.20;70.60;;;;;;5040834;28;20051;-56
2022/01/07 07:09:58;;;;;;;2.92;2.70;;;4.20;70.70;;;;;;5057343;28;20047;-57
2022/01/07 07:12:23;;;;;;;3.20;2.90;;;4.20;70.80;;;;;;5055441;28;20486;-55
2022/01/07 07:14:49;;;;;;;3.38;2.80;;;4.20;70.60;;;;;;5064775;28;20051;-57
2022/01/07 07:17:15;;;;;;;4.53;3.10;;;4.20;70.70;;;;;;5051614;28;20035;-56
2022/01/07 07:19:41;;;;;;;3.05;2.78;;;4.20;70.90;;;;;;5066679;28;20041;-55
2022/01/07 07:22:06;;;;;;;5.85;3.17;;;4.20;70.80;;;;;;5045812;28;20136;-57
2022/01/07 07:24:32;;;;;;;3.20;2.90;;;4.20;70.90;;;;;;5046834;28;20453;-56
2022/01/07 07:26:58;;;;;;;3.20;2.90;;;4.20;70.80;;;;;;5051872;28;20426;-56
2022/01/07 07:29:24;;;;;;;3.70;3.10;;;4.30;70.80;;;;;;5048851;28;20025;-56
2022/01/07 07:31:54;;;;;;;3.88;3.47;;;4.30;70.70;;;;;;5057243;28;20017;-54
2022/01/07 07:34:45;;;;;;;3.28;2.97;;;4.30;70.80;;;;;;5048169;28;20101;-56
2022/01/07 07:37:13;;;;;;;3.20;2.87;;;4.30;70.80;;;;;;5044972;28;20036;-56
2022/01/07 07:39:39;;;;;;;4.00;3.60;;;4.30;70.80;;;;;;5050164;28;20552;-57
2022/01/07 07:42:05;;;;;;;4.25;3.13;;;4.40;70.50;;;;;;5047782;28;20036;-57
2022/01/07 07:44:31;;;;;;;4.80;3.30;;;4.40;70.50;;;;;;5049906;28;20029;-57
2022/01/07 07:46:57;;;;;;;3.80;3.42;;;4.40;70.50;;;;;;5043878;28;20086;-56
2022/01/07 07:49:23;;;;;;;5.32;3.60;;;4.40;70.40;;;;;;5057151;28;20477;-55
2022/01/07 07:51:51;;;;;;;4.00;3.40;;;4.40;70.30;;;;;;5043976;28;20064;-56
2022/01/07 07:54:17;;;;;;;3.67;3.08;;;4.40;70.20;;;;;;5048014;28;20032;-56
2022/01/07 07:56:43;;;;;;;3.90;3.50;;;4.40;70.10;;;;;;5053737;28;20025;-56
2022/01/07 07:59:09;;;;;;;5.32;3.20;;;4.50;70.10;;;;;;5053875;28;20047;-56
2022/01/07 08:01:36;;;;;;;4.00;3.42;;;4.50;70.20;;;;;;5051265;28;20531;-55
2022/01/07 08:04:01;;;;;;;3.80;3.10;;;4.50;69.90;;;;;;5051140;28;20548;-56
2022/01/07 08:06:27;;;;;;;4.28;3.75;;;4.50;69.90;;;;;;5055222;28;20029;-56
2022/01/07 08:08:53;;;;;;;5.95;3.90;;;4.60;70.00;;;;;;5043782;28;20025;-57
2022/01/07 08:11:18;;;;;;;5.47;4.00;;;4.60;69.80;;;;;;5047960;28;20070;-57
2022/01/07 08:16:29;;;;;;;5.78;4.25;;;4.70;69.50;;;;;;5055713;28;20044;-57
2022/01/07 08:18:57;;;;;;;4.00;3.20;;;4.70;69.30;;;;;;5054548;28;20096;-57
2022/01/07 08:21:26;;;;;;;3.45;3.10;;;4.70;69.00;;;;;;5044381;28;20072;-56
2022/01/07 08:23:53;;;;;;;3.83;3.10;;;4.70;69.00;;;;;;5058218;28;20138;-54
2022/01/07 08:26:19;;;;;;;3.85;3.22;;;4.70;69.00;;;;;;5049063;28;20100;-56
2022/01/07 08:28:57;;;;;;;4.85;3.42;;;4.70;69.00;;;;;;5055496;28;20468;-54
2022/01/07 08:34:53;;;;;;;4.35;3.38;;;4.70;68.90;;;;;;5050435;28;20030;-57
2022/01/07 08:36:55;;;;;;;3.85;3.20;;;4.60;69.00;;;;;;5055895;28;20033;-57
2022/01/07 08:39:22;;;;;;;4.38;3.20;;;4.60;69.00;;;;;;5056229;28;20029;-54
2022/01/07 08:41:47;;;;;;;5.10;3.45;;;4.60;69.10;;;;;;5052104;28;20091;-56
2022/01/07 08:44:13;;;;;;;4.10;3.13;;;4.60;69.20;;;;;;5050873;28;20028;-56
2022/01/07 08:46:39;;;;;;;3.80;3.13;;;4.60;69.10;;;;;;5046842;28;20087;-56
2022/01/07 08:49:05;;;;;;;3.05;2.78;;;4.60;68.60;;;;;;5055538;28;20043;-54
2022/01/07 08:51:31;;;;;;;4.18;3.30;;;4.60;68.30;;;;;;5055551;28;20392;-56
2022/01/07 08:53:58;;;;;;;4.50;3.38;;;4.60;68.30;;;;;;5052372;28;20067;-56
2022/01/07 08:56:24;;;;;;;3.65;3.25;;;4.60;68.40;;;;;;5055582;28;20449;-56
2022/01/07 08:58:51;;;;;;;3.63;2.85;;;4.60;67.90;;;;;;5062263;28;20029;-56
2022/01/07 09:01:17;;;;;;;3.13;2.83;;;4.60;67.50;;;;;;5040678;28;20026;-56
2022/01/07 09:03:43;;;;;;;3.20;2.80;;;4.50;67.20;;;;;;5047720;28;20052;-57
2022/01/07 09:06:08;;;;;;;2.92;2.70;;;4.50;67.50;;;;;;5055385;28;20033;-57
2022/01/07 09:08:34;;;;;;;3.85;3.25;;;4.50;67.60;;;;;;5055314;28;20017;-56
2022/01/07 09:11:00;;;;;;;3.17;2.88;;;4.50;67.60;;;;;;5055473;28;20385;-57
2022/01/07 09:13:26;;;;;;;2.97;2.70;;;4.50;67.60;;;;;;5044686;28;20425;-57
2022/01/07 09:15:51;;;;;;;3.90;3.30;;;4.60;67.70;;;;;;5040756;28;20544;-55
2022/01/07 09:18:18;;;;;;;2.85;2.63;;;4.60;67.60;;;;;;5054149;28;20059;-55
2022/01/07 09:20:45;;;;;;;5.30;3.33;;;4.60;67.30;;;;;;5045615;28;20371;-56
2022/01/07 09:23:12;;;;;;;3.00;2.70;;;4.60;67.30;;;;;;5046785;28;20035;-56
2022/01/07 09:25:39;;;;;;;3.45;3.10;;;4.70;66.90;;;;;;5048117;28;20021;-55
2022/01/07 09:28:06;;;;;;;2.88;2.67;;;4.60;66.30;;;;;;5045111;28;20112;-56
2022/01/07 09:30:33;;;;;;;2.90;2.67;;;4.60;66.30;;;;;;5043403;28;20122;-54
2022/01/07 09:32:58;;;;;;;2.47;2.28;;;4.60;66.20;;;;;;5059321;28;20065;-55
2022/01/07 09:35:24;;;;;;;2.30;2.17;;;4.60;65.80;;;;;;5054871;28;20496;-57
2022/01/07 09:37:50;;;;;;;2.30;2.10;;;4.60;65.50;;;;;;5052560;28;20446;-57
2022/01/07 09:40:18;;;;;;;2.42;2.00;;;4.60;64.90;;;;;;5044777;28;20033;-56
2022/01/07 09:43:04;;;;;;;2.95;2.40;;;4.50;64.50;;;;;;5047749;28;20024;-57
2022/01/07 09:45:32;;;;;;;1.80;1.70;;;4.40;64.40;;;;;;5047585;28;20018;-56
2022/01/07 09:47:58;;;;;;;2.15;1.90;;;4.30;64.40;;;;;;5050724;28;20025;-56
2022/01/07 09:50:26;;;;;;;2.15;2.00;;;4.20;63.70;;;;;;5062804;28;20108;-56
2022/01/07 09:52:52;;;;;;;2.53;2.28;;;4.20;63.60;;;;;;5055377;28;20094;-56
2022/01/07 09:55:18;;;;;;;2.08;1.98;;;4.10;63.60;;;;;;5055148;28;20071;-56
2022/01/07 09:57:44;;;;;;;2.38;2.10;;;4.10;63.50;;;;;;5056065;28;20100;-57
2022/01/07 10:00:11;;;;;;;2.15;2.03;;;4.00;63.10;;;;;;5052865;28;20122;-54
2022/01/07 10:02:37;;;;;;;2.22;2.03;;;4.00;62.90;;;;;;5050964;28;20043;-56
2022/01/07 10:05:17;;;;;;;2.33;2.13;;;4.00;62.60;;;;;;5054064;28;20043;-55
2022/01/07 10:07:44;;;;;;;2.20;2.05;;;4.00;62.30;;;;;;5049451;28;20487;-56
2022/01/07 10:10:17;;;;;;;2.50;2.30;;;4.00;62.20;;;;;;5057399;28;20028;-57
2022/01/07 10:12:48;;;;;;;2.50;2.30;;;4.00;62.10;;;;;;5043141;28;20017;-55
2022/01/07 10:15:16;;;;;;;;;;;4.00;61.80;;;;;;5046784;28;20031;-57
2022/01/07 10:18:00;;;;;;;2.92;2.63;;;4.00;61.20;;;;;;5053786;28;19909;-56
2022/01/07 10:20:31;;;;;;;3.00;2.72;;;4.00;61.90;;;;;;5058205;28;20047;-56
2022/01/07 10:23:05;;;;;;;2.42;2.22;;;4.10;62.00;;;;;;5062453;28;20385;-57
2022/01/07 10:25:32;;;;;;;2.53;2.33;;;4.10;62.00;;;;;;5040869;28;20428;-56
2022/01/07 10:28:04;;;;;;;2.33;2.13;;;4.10;61.60;;;;;;5041775;28;20029;-57
2022/01/07 10:30:49;;;;;;;;;;;4.20;61.60;;;;;;5050288;28;20392;-56
2022/01/07 10:33:29;;;;;;;2.22;2.05;;;4.20;61.20;;;;;;5038363;28;19915;-57
2022/01/07 10:36:05;;;;;;;2.65;2.10;;;4.20;61.50;;;;;;5055721;28;20033;-56
2022/01/07 10:38:31;;;;;;;2.33;2.13;;;4.20;61.30;;;;;;5050204;28;20051;-56
2022/01/07 10:40:59;;;;;;;3.90;2.53;;;4.20;60.80;;;;;;5042085;28;20029;-53
2022/01/07 10:43:32;;;;;;;2.72;2.20;;;4.20;60.50;;;;;;5058946;28;20518;-56
2022/01/07 10:46:07;;;;;;;2.50;2.30;;;4.20;60.40;;;;;;5061192;28;20025;-56
2022/01/07 10:48:36;;;;;;;3.08;2.50;;;4.20;60.30;;;;;;5056386;28;20025;-56
2022/01/07 10:51:10;;;;;;;2.55;2.10;;;4.20;60.30;;;;;;5053633;28;20044;-55
2022/01/07 10:53:37;;;;;;;2.80;2.40;;;4.30;59.80;;;;;;5056055;28;20037;-57
2022/01/07 10:56:12;;;;;;;2.30;2.10;;;4.30;59.30;;;;;;5047040;28;20028;-56
2022/01/07 10:58:47;;;;;;;2.55;2.10;;;4.30;58.80;;;;;;5045154;28;20372;-57
2022/01/07 11:01:21;;;;;;;2.60;1.90;;;4.30;58.20;;;;;;5038719;28;20061;-56
2022/01/07 11:03:52;;;;;;;2.00;1.83;;;4.30;57.40;;;;;;5042431;28;20029;-52
2022/01/07 11:06:19;;;;;;;2.45;1.90;;;4.30;57.10;;;;;;5040989;28;20061;-57
2022/01/07 11:08:48;;;;;;;2.38;2.17;;;4.20;56.70;;;;;;5051942;28;20056;-56
2022/01/07 11:11:14;;;;;;;1.80;1.70;;;4.20;56.60;;;;;;5053353;28;20029;-55
2022/01/07 11:13:41;;;;;;;1.60;1.50;;;4.20;56.20;;;;;;5051055;28;20029;-56
2022/01/07 11:16:07;;;;;;;1.80;1.70;;;4.10;56.00;;;;;;5041025;28;20033;-56
2022/01/07 11:18:37;;;;;;;2.00;1.85;;;4.10;56.00;;;;;;5045923;28;20362;-57
2022/01/07 11:21:04;;;;;;;1.90;1.80;;;4.10;55.80;;;;;;5049121;28;20045;-56
2022/01/07 11:23:30;;;;;;;1.92;1.83;;;4.10;55.60;;;;;;5054517;28;20041;-57
2022/01/07 11:26:04;;;;;;;2.65;2.20;;;4.10;55.30;;;;;;5055592;28;20040;-57
2022/01/07 11:28:30;;;;;;;2.10;1.90;;;4.10;55.10;;;;;;5052881;28;20033;-56
2022/01/07 11:31:09;;;;;;;2.10;1.90;;;4.00;55.20;;;;;;5051601;28;20033;-57
2022/01/07 11:33:35;;;;;;;2.30;2.10;;;4.00;55.90;;;;;;5044788;28;20091;-57
2022/01/07 11:36:00;;;;;;;1.90;1.80;;;4.00;56.00;;;;;;5050555;28;20028;-56
2022/01/07 11:38:38;;;;;;;2.63;1.90;;;4.00;56.10;;;;;;5047924;28;20400;-53
2022/01/07 11:41:09;;;;;;;2.33;1.80;;;4.00;56.40;;;;;;5047333;28;20485;-56
2022/01/07 11:43:43;;;;;;;2.20;2.00;;;4.00;56.50;;;;;;5050624;28;20416;-56
2022/01/07 11:46:24;;;;;;;2.33;2.13;;;4.00;56.40;;;;;;5036294;28;20030;-55
2022/01/07 11:48:51;;;;;;;2.20;1.80;;;4.10;56.60;;;;;;5038275;28;20112;-57
2022/01/07 11:51:17;;;;;;;2.20;2.00;;;4.10;56.50;;;;;;5049642;28;20100;-56
2022/01/07 11:53:48;;;;;;;2.63;2.13;;;4.10;56.30;;;;;;5051432;28;20095;-55
2022/01/07 11:56:23;;;;;;;2.25;2.13;;;4.10;56.20;;;;;;5049035;28;20025;-57
2022/01/07 11:58:55;;;;;;;1.92;1.83;;;4.10;56.40;;;;;;5044301;28;20514;-56
2022/01/07 12:01:29;;;;;;;2.03;1.80;;;4.10;56.70;;;;;;5051677;28;20029;-56
2022/01/07 12:03:57;;;;;;;1.90;1.80;;;4.10;57.00;;;;;;5060905;28;20132;-57
2022/01/07 12:06:26;;;;;;;4.22;2.47;;;4.10;57.10;;;;;;5036768;28;20034;-57
2022/01/07 12:09:07;;;;;;;2.28;2.03;;;4.10;56.40;;;;;;5053766;28;20067;-57
2022/01/07 12:11:39;;;;;;;2.47;2.03;;;4.10;56.00;;;;;;5042452;28;20071;-57
2022/01/07 12:14:15;;;;;;;2.65;2.33;;;4.10;55.80;;;;;;5055250;28;20043;-56
2022/01/07 12:16:43;;;;;;;3.95;2.85;;;4.00;55.40;;;;;;5056191;28;20029;-57
2022/01/07 12:19:12;;;;;;;3.13;2.58;;;4.00;55.20;;;;;;5056074;28;20029;-57
2022/01/07 12:21:41;;;;;;;4.38;2.85;;;4.10;55.20;;;;;;5055730;28;20570;-56
2022/01/07 12:24:16;;;;;;;3.92;2.83;;;4.10;55.10;;;;;;5048864;28;20029;-56
2022/01/07 12:26:42;;;;;;;3.35;2.70;;;4.10;55.20;;;;;;5052100;28;20060;-56
2022/01/07 12:29:19;;;;;;;3.78;2.88;;;4.00;55.00;;;;;;5065308;28;20078;-56
2022/01/07 12:31:51;;;;;;;5.47;3.55;;;4.10;55.00;;;;;;5057174;28;20029;-57
2022/01/07 12:34:28;;;;;;;4.18;2.70;;;4.10;55.00;;;;;;5069362;28;20021;-57
2022/01/07 12:37:02;;;;;;;3.15;2.75;;;4.00;54.90;;;;;;5043391;28;20381;-56
2022/01/07 12:39:31;;;;;;;3.33;2.72;;;4.00;54.80;;;;;;5035408;28;20033;-56
2022/01/07 12:41:57;;;;;;;3.95;2.50;;;4.00;54.90;;;;;;5044117;28;20112;-57
2022/01/07 12:44:24;;;;;;;3.67;2.42;;;4.00;55.20;;;;;;5042735;28;20033;-55
2022/01/07 12:46:53;;;;;;;3.08;2.70;;;4.00;55.30;;;;;;5048837;28;20477;-57
2022/01/07 12:49:19;;;;;;;3.25;2.67;;;4.00;55.40;;;;;;5045259;28;20021;-56
2022/01/07 12:52:21;;;;;;;3.88;2.83;;;4.00;56.10;;;;;;5041934;28;20527;-56
2022/01/07 12:54:54;;;;;;;3.03;2.40;;;4.00;55.50;;;;;;5048692;28;20055;-57
2022/01/07 12:57:31;;;;;;;2.05;1.95;;;4.00;55.90;;;;;;5053038;28;20021;-56
2022/01/07 13:00:16;;;;;;;1.80;1.70;;;4.00;56.30;;;;;;5046895;28;20060;-56
2022/01/07 13:02:47;;;;;;;2.13;1.90;;;4.00;56.70;;;;;;5054424;28;20039;-55
2022/01/07 13:05:31;;;;;;;2.00;1.90;;;4.00;56.90;;;;;;5050045;28;20377;-55